createdAt,value
2023-05-25T00:04:30.739Z,19.27
2023-05-25T00:09:52.623Z,19.25
2023-05-25T00:15:14.465Z,19.25
2023-05-25T00:20:36.418Z,19.24
2023-05-25T00:25:58.807Z,19.23
2023-05-25T00:31:20.646Z,19.21
2023-05-25T00:36:43.614Z,19.20
2023-05-25T00:42:07.638Z,19.18
2023-05-25T00:47:29.774Z,19.18
2023-05-25T00:52:51.772Z,19.16
2023-05-25T00:58:14.032Z,19.15
2023-05-25T01:03:38.278Z,19.14
2023-05-25T01:09:04.579Z,19.15
2023-05-25T01:14:27.712Z,19.14
2023-05-25T01:20:01.653Z,19.12
2023-05-25T01:25:37.305Z,19.13
2023-05-25T01:31:00.423Z,19.11
2023-05-25T01:36:22.679Z,19.08
2023-05-25T01:41:44.563Z,19.07
2023-05-25T01:47:17.272Z,19.08
2023-05-25T01:53:01.345Z,19.06
2023-05-25T01:58:26.321Z,19.04
2023-05-25T02:03:49.484Z,19.05
2023-05-25T02:09:11.385Z,19.03
2023-05-25T02:14:33.293Z,19.02
2023-05-25T02:19:55.266Z,19.02
2023-05-25T02:25:17.720Z,19.01
2023-05-25T02:30:39.605Z,19.01
2023-05-25T02:36:01.603Z,18.99
2023-05-25T02:41:24.601Z,18.98
2023-05-25T02:46:46.613Z,18.98
2023-05-25T02:52:08.539Z,18.96
2023-05-25T02:57:30.747Z,18.95
2023-05-25T03:02:53.003Z,18.94
2023-05-25T03:08:14.874Z,18.93
2023-05-25T03:13:36.768Z,18.90
2023-05-25T03:18:58.614Z,18.90
2023-05-25T03:24:20.550Z,18.89
2023-05-25T03:29:42.430Z,18.88
2023-05-25T03:35:07.146Z,18.88
2023-05-25T03:40:29.293Z,18.88
2023-05-25T03:45:51.991Z,18.87
2023-05-25T03:51:13.841Z,18.86
2023-05-25T03:56:35.849Z,18.86
2023-05-25T04:01:57.880Z,18.86
2023-05-25T04:07:20.611Z,18.84
2023-05-25T04:12:42.440Z,18.84
2023-05-25T04:18:04.532Z,18.85
2023-05-25T04:23:26.372Z,18.84
2023-05-25T04:28:48.616Z,18.82
2023-05-25T04:34:10.510Z,18.81
2023-05-25T04:39:33.029Z,18.82
2023-05-25T04:44:56.237Z,18.82
2023-05-25T04:50:18.295Z,18.81
2023-05-25T04:55:40.323Z,18.81
2023-05-25T05:01:02.293Z,18.80
2023-05-25T05:06:25.985Z,18.80
2023-05-25T05:11:47.900Z,18.82
2023-05-25T05:22:33.838Z,19.04
2023-05-25T05:27:55.656Z,19.18
2023-05-25T05:33:17.619Z,19.31
2023-05-25T05:38:41.689Z,19.44
2023-05-25T05:44:03.491Z,19.55
2023-05-25T05:49:25.317Z,19.64
2023-05-25T05:54:47.155Z,19.74
2023-05-25T06:00:09.735Z,19.80
2023-05-25T06:05:31.598Z,19.87
2023-05-25T06:10:53.568Z,19.93
2023-05-25T06:16:15.470Z,19.98
2023-05-25T06:21:38.008Z,20.04
2023-05-25T06:26:59.885Z,20.08
2023-05-25T06:32:21.756Z,20.12
2023-05-25T06:37:43.871Z,20.18
2023-05-25T06:43:05.809Z,20.22
2023-05-25T06:48:27.640Z,20.26
2023-05-25T06:53:49.612Z,20.32
2023-05-25T06:59:11.521Z,20.36
2023-05-25T07:04:35.066Z,20.38
2023-05-25T07:09:56.993Z,20.44
2023-05-25T07:15:19.421Z,20.49
2023-05-25T07:20:42.689Z,20.53
2023-05-25T07:26:06.109Z,20.55
2023-05-25T07:31:28.303Z,20.55
2023-05-25T07:36:50.256Z,20.57
2023-05-25T07:42:12.305Z,20.58
2023-05-25T07:47:34.149Z,20.56
2023-05-25T07:52:56.084Z,20.55
2023-05-25T07:58:18.117Z,20.54
2023-05-25T08:03:48.949Z,20.58
2023-05-25T08:09:13.539Z,20.62
2023-05-25T08:14:35.369Z,20.63
2023-05-25T08:19:58.013Z,20.62
2023-05-25T08:25:20.395Z,20.60
2023-05-25T08:30:44.087Z,20.60
2023-05-25T08:36:06.871Z,20.58
2023-05-25T08:41:29.683Z,20.58
2023-05-25T08:46:52.198Z,20.56
2023-05-25T08:52:15.323Z,20.54
2023-05-25T08:57:49.622Z,20.53
2023-05-25T09:03:18.396Z,20.51
2023-05-25T09:08:41.271Z,20.45
2023-05-25T09:14:03.584Z,20.43
2023-05-25T09:19:25.421Z,20.39
2023-05-25T09:24:47.611Z,20.36
2023-05-25T09:30:09.940Z,20.28
2023-05-25T09:35:31.975Z,20.23
2023-05-25T09:40:53.789Z,20.23
2023-05-25T09:46:15.799Z,20.19
2023-05-25T09:51:37.750Z,20.18
2023-05-25T09:57:03.191Z,20.16
2023-05-25T10:02:25.115Z,20.12
2023-05-25T10:07:48.332Z,20.10
2023-05-25T10:13:11.446Z,20.08
2023-05-25T10:18:36.342Z,20.07
2023-05-25T10:24:06.621Z,20.06
2023-05-25T10:29:30.368Z,20.05
2023-05-25T10:34:53.580Z,20.03
2023-05-25T10:40:16.026Z,20.02
2023-05-25T10:45:37.888Z,19.99
2023-05-25T10:50:59.733Z,19.99
2023-05-25T10:56:21.879Z,20.01
2023-05-25T11:01:51.899Z,20.03
2023-05-25T11:07:16.820Z,20.03
2023-05-25T11:12:39.235Z,20.02
2023-05-25T11:18:01.672Z,20.05
2023-05-25T11:23:24.567Z,20.06
2023-05-25T11:28:47.315Z,20.07
2023-05-25T11:34:09.705Z,20.08
2023-05-25T11:39:35.044Z,20.08
2023-05-25T11:44:57.412Z,20.08
2023-05-25T11:50:19.405Z,20.09
2023-05-25T11:55:43.062Z,20.07
2023-05-25T12:01:15.288Z,20.09
2023-05-25T12:06:37.244Z,20.07
2023-05-25T12:12:00.349Z,20.06
2023-05-25T12:17:22.532Z,20.06
2023-05-25T12:22:46.227Z,20.06
2023-05-25T12:28:12.512Z,20.09
2023-05-25T12:33:34.918Z,20.09
2023-05-25T12:39:00.052Z,20.10
2023-05-25T12:44:32.724Z,20.11
2023-05-25T12:50:13.856Z,20.11
2023-05-25T12:55:36.427Z,20.09
2023-05-25T13:00:58.454Z,20.07
2023-05-25T13:06:20.387Z,20.08
2023-05-25T13:11:42.380Z,20.08
2023-05-25T13:17:04.618Z,20.11
2023-05-25T13:22:26.769Z,20.12
2023-05-25T13:27:51.264Z,20.14
2023-05-25T13:33:13.250Z,20.16
2023-05-25T13:38:36.256Z,20.18
2023-05-25T13:43:58.221Z,20.18
2023-05-25T13:49:20.211Z,20.16
2023-05-25T13:54:42.319Z,20.17
2023-05-25T14:00:05.814Z,20.17
2023-05-25T14:05:28.781Z,20.14
2023-05-25T14:10:50.826Z,20.16
2023-05-25T14:16:12.651Z,20.17
2023-05-25T14:21:35.186Z,20.17
2023-05-25T14:26:56.984Z,20.18
2023-05-25T14:32:19.690Z,20.18
2023-05-25T14:37:41.879Z,20.12
2023-05-25T14:43:03.816Z,20.10
2023-05-25T14:48:26.421Z,20.07
2023-05-25T14:53:48.246Z,20.04
2023-05-25T14:59:10.106Z,20.03
2023-05-25T15:04:32.151Z,20.04
2023-05-25T15:09:54.015Z,20.03
2023-05-25T15:15:15.948Z,20.00
2023-05-25T15:20:37.825Z,19.99
2023-05-25T15:26:04.757Z,19.97
2023-05-25T15:31:26.713Z,19.97
2023-05-25T15:36:48.806Z,19.95
2023-05-25T15:42:10.738Z,19.97
2023-05-25T15:47:32.702Z,20.05
2023-05-25T15:52:54.572Z,20.09
2023-05-25T15:58:17.967Z,20.13
2023-05-25T16:03:42.547Z,20.15
2023-05-25T16:09:04.977Z,20.20
2023-05-25T16:14:26.822Z,20.23
2023-05-25T16:19:48.779Z,20.32
2023-05-25T16:25:11.033Z,20.37
2023-05-25T16:30:32.921Z,20.39
2023-05-25T16:35:54.765Z,20.42
2023-05-25T16:41:16.653Z,20.42
2023-05-25T16:46:38.665Z,20.40
2023-05-25T16:52:02.797Z,20.39
2023-05-25T16:57:24.947Z,20.38
2023-05-25T17:02:47.342Z,20.42
2023-05-25T17:08:09.760Z,20.44
2023-05-25T17:13:31.748Z,20.45
2023-05-25T17:18:53.633Z,20.47
2023-05-25T17:24:15.687Z,20.49
2023-05-25T17:29:38.103Z,20.51
2023-05-25T17:34:59.982Z,20.53
2023-05-25T17:40:22.215Z,20.51
2023-05-25T17:45:44.321Z,20.45
2023-05-25T17:51:06.368Z,20.42
2023-05-25T17:56:28.556Z,20.39
2023-05-25T18:01:50.524Z,20.35
2023-05-25T18:07:12.376Z,20.31
2023-05-25T18:12:34.414Z,20.27
2023-05-25T18:17:56.275Z,20.23
2023-05-25T18:23:18.345Z,20.21
2023-05-25T18:28:40.141Z,20.19
2023-05-25T18:34:02.220Z,20.14
2023-05-25T18:39:24.104Z,20.11
2023-05-25T18:44:46.052Z,20.09
2023-05-25T18:50:08.237Z,20.06
2023-05-25T18:55:30.218Z,20.03
2023-05-25T19:00:52.014Z,20.01
2023-05-25T19:06:13.838Z,19.99
2023-05-25T19:11:35.825Z,19.98
2023-05-25T19:16:57.658Z,19.95
2023-05-25T19:22:19.671Z,19.93
2023-05-25T19:27:41.513Z,19.90
2023-05-25T19:33:03.395Z,19.87
2023-05-25T19:38:28.861Z,19.85
2023-05-25T19:43:56.347Z,19.83
2023-05-25T19:49:18.160Z,19.81
2023-05-25T19:54:40.119Z,19.78
2023-05-25T20:00:02.256Z,19.78
2023-05-25T20:05:24.570Z,19.79
2023-05-25T20:10:46.429Z,19.78
2023-05-25T20:16:11.527Z,19.77
2023-05-25T20:21:34.299Z,19.78
2023-05-25T20:26:57.058Z,19.77
2023-05-25T20:32:18.949Z,19.77
2023-05-25T20:37:42.302Z,19.78
2023-05-25T20:43:04.166Z,19.79
2023-05-25T20:48:26.212Z,19.78
2023-05-25T20:53:48.222Z,19.78
2023-05-25T20:59:10.170Z,19.78
2023-05-25T21:04:32.132Z,19.75
2023-05-25T21:09:56.930Z,19.74
2023-05-25T21:15:18.735Z,19.69
2023-05-25T21:20:40.831Z,19.67
2023-05-25T21:26:02.703Z,19.67
2023-05-25T21:31:25.290Z,19.66
2023-05-25T21:36:47.188Z,19.63
2023-05-25T21:42:09.796Z,19.63
2023-05-25T21:47:31.693Z,19.59
2023-05-25T21:52:53.559Z,19.58
2023-05-25T21:58:18.013Z,19.58
2023-05-25T22:03:39.957Z,19.57
2023-05-25T22:09:02.298Z,19.55
2023-05-25T22:14:24.216Z,19.54
2023-05-25T22:19:52.113Z,19.52
2023-05-25T22:25:21.351Z,19.50
2023-05-25T22:30:43.220Z,19.52
2023-05-25T22:36:05.299Z,19.52
2023-05-25T22:41:27.273Z,19.52
2023-05-25T22:46:49.344Z,19.51
2023-05-25T22:52:12.006Z,19.52
2023-05-25T22:57:34.068Z,19.52
2023-05-25T23:02:56.287Z,19.51
2023-05-25T23:08:18.248Z,19.50
2023-05-25T23:13:41.750Z,19.50
2023-05-25T23:19:03.620Z,19.49
2023-05-25T23:24:25.435Z,19.48
2023-05-25T23:29:47.279Z,19.46
2023-05-25T23:35:09.468Z,19.46
2023-05-25T23:40:31.490Z,19.45
2023-05-25T23:45:53.603Z,19.44
2023-05-25T23:51:15.492Z,19.43
2023-05-25T23:56:37.288Z,19.43
